Main page
METAR-TAF:

METAR-TAF

Airports :

Tri-State Airport

Huntington, West Virginia, United States

latitude: 38-21-54N, longitude: 082-33-18W, elevation: 827 ft

Current weather observation

The report was made 15 minutes ago, at 03:51 UTC
Wind 5 mph from the South/Southwest
Temperature 75°F
Humidity 65%
Pressure 29.97 in. Hg
Visibility: 10 miles
Clear sky

METAR: KHTS 030351Z 21004KT 10SM CLR 24/17 A2997 RMK AO2 SLP140 T02390167

Time: 00:06 (04:06 UTC)

Forecast

The report was made 1 hour and 59 minutes ago, at 02:07 UTC
Forecast valid from 03 at 02 UTC to 03 at 24 UTC
Wind 8 mph from the West/Southwest
Visibility: 6 miles
Few clouds at a height of 25000 ft
From 03 at 1500 UTC
Wind 12 mph from the Southwest with gusts up to 20 mph
Visibility: 6 miles
Scattered clouds at a height of 25000 ft

TAF: KHTS 030207Z 0302/0324 24007KT P6SM FEW250 FM031500 23010G17KT P6SM SCT250

Weather observations and forecasts of more than 4000 airports (METAR and TAF reports).

The available stations are represented by yellow and red dots on the map.

Hover mouse over dot to see the name of the station.

Then click to see weather observations and forecasts.

To change the map : click on the green buttons with a black cross to zoom in, on the green button with a dash to zoom out, or on the green arrows for adjacent maps.


METAR-TAF: